Estación de Tranapuente INIA

Ultimos registro cada 15 minutos 37
Estación Fecha / Hora Temperatura Humedad Lluvia Velocidad Dirección Radiación Presion
37 Tranapuente INIA 06-09-2026 09:00 7,8 44,1 0 0,9 136 269 1008
36 Tranapuente INIA 06-09-2026 08:45 7,4 43,1 0 0,8 141 154,3 1009
35 Tranapuente INIA 06-09-2026 08:30 6,9 47,7 0 1,5 129 182,1 1009
34 Tranapuente INIA 06-09-2026 08:15 6,4 42,7 0 1,6 123 143 1009
33 Tranapuente INIA 06-09-2026 08:00 5,7 44,3 0 0,5 118 101,6 1009
32 Tranapuente INIA 06-09-2026 07:45 5,4 44,6 0 0,4 118 53,9 1009
31 Tranapuente INIA 06-09-2026 07:30 5,1 44,8 0 1,6 134 18,1 1009
30 Tranapuente INIA 06-09-2026 07:15 4,6 46,7 0 1,9 130 4,5 1009
29 Tranapuente INIA 06-09-2026 07:00 4,1 48,5 0 2 136 0,9 1009
28 Tranapuente INIA 06-09-2026 06:45 3,7 49,9 0 2,2 122 0 1009
27 Tranapuente INIA 06-09-2026 06:30 4 51,5 0 2,7 133 0 1009
26 Tranapuente INIA 06-09-2026 06:15 3,9 50 0 2,4 139 0 1009
25 Tranapuente INIA 06-09-2026 06:00 4,2 52,1 0 2,3 148 0 1009
24 Tranapuente INIA 06-09-2026 05:45 4,5 48,6 0 2,8 142 0 1009
23 Tranapuente INIA 06-09-2026 05:30 4,7 49,3 0 3 144 0 1009
22 Tranapuente INIA 06-09-2026 05:15 5,1 47,3 0 3,4 130 0 1009
21 Tranapuente INIA 06-09-2026 05:00 5,5 44,4 0 3,6 139 0 1010
20 Tranapuente INIA 06-09-2026 04:45 5,7 41,7 0 3,3 147 0 1010
19 Tranapuente INIA 06-09-2026 04:30 5,5 41,9 0 3,5 131 0 1010
18 Tranapuente INIA 06-09-2026 04:15 5,6 43,5 0 3,8 130 0 1010
17 Tranapuente INIA 06-09-2026 04:00 5,4 44,2 0 3,5 126 0 1011
16 Tranapuente INIA 06-09-2026 03:45 5,1 43,6 0 2,4 116 0 1011
15 Tranapuente INIA 06-09-2026 03:30 5,3 43,5 0 2,8 119 0 1011
14 Tranapuente INIA 06-09-2026 03:15 5,2 45,3 0 3,2 120 0 1011
13 Tranapuente INIA 06-09-2026 03:00 5,1 45,5 0 2,6 116 0 1012
12 Tranapuente INIA 06-09-2026 02:45 5,4 45,7 0 2,9 121 0 1012
11 Tranapuente INIA 06-09-2026 02:30 5,6 42,1 0 2,6 120 0 1012
10 Tranapuente INIA 06-09-2026 02:15 6,2 41,6 0 2,6 132 0 1012
9 Tranapuente INIA 06-09-2026 02:00 6,3 38,7 0 2,9 132 0 1012
8 Tranapuente INIA 06-09-2026 01:45 6,4 37,3 0 3,1 142 0 1012
7 Tranapuente INIA 06-09-2026 01:30 6,3 37,8 0 2,8 136 0 1013
6 Tranapuente INIA 06-09-2026 01:15 6,2 39,4 0 2,9 132 0 1013
5 Tranapuente INIA 06-09-2026 01:00 6,2 39,6 0 3 133 0 1013
4 Tranapuente INIA 06-09-2026 00:45 6 39,7 0 2,7 127 0 1013
3 Tranapuente INIA 06-09-2026 00:30 6,1 42,7 0 2,4 130 0 1013
2 Tranapuente INIA 06-09-2026 00:15 6,2 38,5 0 2,5 136 0 1014
1 Tranapuente INIA 06-09-2026 00:00 6,5 39,7 0 2,6 130 0 1014